Historique des mesures à Cassis (13260), France
Quotidien Résumé Juin 29, 2017 Unités:  US    Métrique   Métrique/US
« Précédent (Jour)
Suivant (Jour) »
Quotidien Hebdomadaire Mensuel Annuel Période au choix
  Maximum: Minimum: Moyenne:
Température: 32 °F 64.2 °F 68.2 °F
Point de rosée: 32 °F 52.9 °F 54.7 °F
Humidité: Humidity % 51 % 59 %
Vitesse du vent: WindSpeedKMH mph 0.0 mph 8.1 mph
Rafales: WindSpeedGustKMH mph - -
Vent:- - SW
Pression: 0 in 29.5 in -
Précipitations: 0 in    
Historical Graphs
 
 
Mesures pour : Juin 29, 2017
Heure Temperature Point de rosée Pression Vent Vitesse du vent Rafales Humidité Pluie (par heure) Conditions
32 °F 32 °F 0 in Calm     Humidity % 0 in SoftwareType W/m2
00:10 67.1 °F 53.6 °F 29.5 in West 5.8 mph 7.2 mph 62 % 0 in open2300-1.11 W/m2
01:10 66.7 °F 52.9 °F 29.5 in North 3.5 mph 3.5 mph 61 % 0 in open2300-1.11 W/m2
02:11 65.1 °F 53.4 °F 29.5 in Calm   8.2 mph 66 % 0 in open2300-1.11 W/m2
03:10 65.5 °F 55 °F 29.5 in NNW 6.4 mph 7.6 mph 69 % 0 in open2300-1.11 W/m2
04:10 65.5 °F 56.1 °F 29.5 in SSE 2.1 mph 7.2 mph 72 % 0 in open2300-1.11 W/m2
05:11 65.3 °F 55.2 °F 29.5 in NW 5.8 mph 5.8 mph 70 % 0 in open2300-1.11 W/m2
06:11 64.2 °F 54.7 °F 29.6 in Calm     71 % 0 in open2300-1.11 W/m2
07:10 65.8 °F 56.1 °F 29.6 in North 4.0 mph 9.3 mph 71 % 0 in open2300-1.11 W/m2
08:10 67.5 °F 56.5 °F 29.6 in NNW 7.2 mph 10.1 mph 68 % 0 in open2300-1.11 W/m2
09:10 67.1 °F 55.8 °F 29.6 in NW 29.4 mph 29.4 mph 67 % 0 in open2300-1.11 W/m2
10:10 70.2 °F 57 °F 29.6 in North 6.4 mph 33.8 mph 63 % 0 in open2300-1.11 W/m2
11:11 71.4 °F 56.3 °F 29.6 in NNW 25.3 mph 25.3 mph 59 % 0 in open2300-1.11 W/m2
12:11 73 °F 56.8 °F 29.6 in West 24.8 mph 24.8 mph 56 % 0 in open2300-1.11 W/m2
13:11 73.2 °F 55.9 °F 29.6 in NNE 6.8 mph 27.7 mph 56 % 0 in open2300-1.11 W/m2
14:10 75 °F 57.2 °F 29.6 in West 23.0 mph 23.0 mph 54 % 0 in open2300-1.11 W/m2
15:10 73.8 °F 55.6 °F 29.6 in NW 16.3 mph 16.3 mph 53 % 0 in open2300-1.11 W/m2
16:10 74.8 °F 55.9 °F 29.6 in WNW 4.7 mph 11.6 mph 52 % 0 in open2300-1.11 W/m2
18:10 75.9 °F 56.5 °F 29.6 in West 6.4 mph 16.3 mph 51 % 0 in open2300-1.11 W/m2
19:10 74.3 °F 55.9 °F 29.6 in SW 5.0 mph 6.1 mph 53 % 0 in open2300-1.11 W/m2
20:11 73.2 °F 55.9 °F 29.6 in SW 3.5 mph 3.5 mph 55 % 0 in open2300-1.11 W/m2
21:10 71.4 °F 55.8 °F 29.7 in Calm   4.7 mph 58 % 0 in open2300-1.11 W/m2
22:11 70 °F 55.6 °F 29.7 in Calm     60 % 0 in open2300-1.11 W/m2
23:11 69.6 °F 56.5 °F 29.7 in NW 8.7 mph 8.7 mph 63 % 0 in open2300-1.11 W/m2
Observations météo à CASSIS
WU-History script by Weather Underground - 1 mb